Time;durP1;ratioP1;P1;durP2;ratioP2;P2;SDS_P1;SDS_P2;PMS_P1;PMS_P2;Temp;Humidity;BMP_temperature;BMP_pressure;BME280_temperature;BME280_humidity;BME280_pressure;Samples;Min_cycle;Max_cycle;Signal;HPM_P1;HPM_P2
2021/06/15 00:01:49;0.00;0.00;0.62;0.00;0.00;0.62;;;;;21.80;1.00;;;;;;2578328;55;1121;-88
2021/06/15 00:04:16;146994.00;0.49;254.63;0.00;0.00;0.62;;;;;21.70;1.00;;;;;;2576207;55;1164;-87
2021/06/15 00:06:45;0.00;0.00;0.62;0.00;0.00;0.62;;;;;21.10;1.00;;;;;;2581649;55;1951;-87
2021/06/15 00:09:12;0.00;0.00;0.62;0.00;0.00;0.62;;;;;20.90;1.00;;;;;;2581777;55;1310;-86
2021/06/15 00:11:39;0.00;0.00;0.62;0.00;0.00;0.62;;;;;20.50;1.00;;;;;;2578681;55;960;-87
2021/06/15 00:14:06;0.00;0.00;0.62;0.00;0.00;0.62;;;;;20.40;1.00;;;;;;2581673;55;1128;-87
2021/06/15 00:16:33;69522.00;0.23;120.93;0.00;0.00;0.62;;;;;20.60;1.00;;;;;;2581531;55;1668;-88
2021/06/15 00:19:00;60815.00;0.20;105.89;0.00;0.00;0.62;;;;;20.80;1.00;;;;;;2583988;55;1239;-88
2021/06/15 00:21:27;0.00;0.00;0.62;0.00;0.00;0.62;;;;;21.00;1.00;;;;;;2581014;55;1073;-88
2021/06/15 00:23:55;173510.00;0.58;300.31;19251.00;0.06;33.97;;;;;21.10;1.00;;;;;;2583835;55;973;-88
2021/06/15 00:26:22;182608.00;0.61;315.98;49018.00;0.16;85.49;;;;;21.10;1.00;;;;;;2580911;55;1906;-89
2021/06/15 00:28:49;224708.00;0.75;388.44;67770.00;0.23;117.91;;;;;21.10;1.00;;;;;;2584085;55;1365;-88
2021/06/15 00:31:16;0.00;0.00;0.62;0.00;0.00;0.62;;;;;21.00;1.00;;;;;;2584127;55;898;-88
2021/06/15 00:33:43;24875.00;0.08;43.71;0.00;0.00;0.62;;;;;21.00;1.00;;;;;;2583929;55;900;-88
2021/06/15 00:36:10;79056.00;0.26;137.41;0.00;0.00;0.62;;;;;21.00;1.00;;;;;;2584014;55;975;-88
2021/06/15 00:38:37;45424.00;0.15;79.27;0.00;0.00;0.62;;;;;20.90;1.00;;;;;;2578469;55;1398;-88
2021/06/15 00:41:06;64884.00;0.22;112.92;0.00;0.00;0.62;;;;;20.80;1.00;;;;;;2581718;55;1164;-87
2021/06/15 00:43:33;67622.00;0.23;117.65;0.00;0.00;0.62;;;;;21.00;1.00;;;;;;2583943;55;1104;-86
2021/06/15 00:46:00;0.00;0.00;0.62;0.00;0.00;0.62;;;;;20.70;1.00;;;;;;2584054;55;1942;-87
2021/06/15 00:48:30;0.00;0.00;0.62;0.00;0.00;0.62;;;;;20.70;1.00;;;;;;2577541;55;1255;-86
2021/06/15 00:50:57;80967.00;0.27;140.71;0.00;0.00;0.62;;;;;20.40;1.00;;;;;;2576055;55;1125;-85
2021/06/15 00:53:25;165210.00;0.55;286.02;0.00;0.00;0.62;;;;;20.60;1.00;;;;;;2575703;56;1160;-84
2021/06/15 00:55:53;417450.00;1.39;719.81;69929.00;0.23;121.64;;;;;20.50;1.00;;;;;;2583018;55;1136;-85
2021/06/15 00:58:22;46519.00;0.16;81.17;0.00;0.00;0.62;;;;;20.30;1.00;;;;;;2577246;55;1378;-86
2021/06/15 01:00:50;70372.00;0.23;122.40;0.00;0.00;0.62;;;;;20.40;1.00;;;;;;2568431;55;1165;-85
2021/06/15 01:03:18;178075.00;0.59;308.17;40155.00;0.13;70.16;;;;;20.50;1.00;;;;;;2567659;56;1267;-85
2021/06/15 01:05:46;180657.00;0.60;312.62;34432.00;0.11;60.25;;;;;20.50;1.00;;;;;;2576629;55;1179;-86
2021/06/15 01:08:23;47977.00;0.16;83.69;0.00;0.00;0.62;;;;;20.60;1.00;;;;;;2576898;55;1917;-84
2021/06/15 01:11:02;345033.00;1.15;595.32;63521.00;0.21;110.56;;;;;20.30;1.00;;;;;;2576647;55;1153;-85
2021/06/15 01:13:42;0.00;0.00;0.62;0.00;0.00;0.62;;;;;20.30;1.00;;;;;;2575082;56;1153;-85
2021/06/15 01:16:20;0.00;0.00;0.62;0.00;0.00;0.62;;;;;20.30;1.00;;;;;;2569411;55;1062;-85
2021/06/15 01:18:52;58324.00;0.19;101.58;0.00;0.00;0.62;;;;;20.20;1.00;;;;;;2581158;55;1411;-86
2021/06/15 01:21:22;0.00;0.00;0.62;0.00;0.00;0.62;;;;;20.20;1.00;;;;;;2572754;55;1129;-86
2021/06/15 01:24:14;0.00;0.00;0.62;0.00;0.00;0.62;;;;;20.70;1.00;;;;;;2573200;55;1057;-85
2021/06/15 01:27:16;0.00;0.00;0.62;0.00;0.00;0.62;;;;;20.90;1.00;;;;;;2583339;55;1905;-87
2021/06/15 01:29:48;50750.00;0.17;88.48;0.00;0.00;0.62;;;;;21.10;1.00;;;;;;2569822;55;1357;-87
2021/06/15 01:32:24;0.00;0.00;0.62;0.00;0.00;0.62;;;;;21.10;1.00;;;;;;2581533;55;1085;-87
2021/06/15 01:34:54;0.00;0.00;0.62;0.00;0.00;0.62;;;;;20.80;1.00;;;;;;2570305;55;1051;-86
2021/06/15 01:37:26;0.00;0.00;0.62;0.00;0.00;0.62;;;;;20.60;1.00;;;;;;2577279;55;1077;-85
2021/06/15 01:39:57;0.00;0.00;0.62;0.00;0.00;0.62;;;;;20.60;1.00;;;;;;2576360;55;1380;-85
2021/06/15 01:42:30;66318.00;0.22;115.40;0.00;0.00;0.62;;;;;20.50;1.00;;;;;;2567918;55;1231;-86
2021/06/15 01:45:05;8747.00;0.03;15.78;0.00;0.00;0.62;;;;;20.50;1.00;;;;;;2561123;56;1134;-86
2021/06/15 01:47:32;0.00;0.00;0.62;0.00;0.00;0.62;;;;;20.40;1.00;;;;;;2562735;56;1951;-86
2021/06/15 01:50:01;48488.00;0.16;84.57;0.00;0.00;0.62;;;;;20.60;1.00;;;;;;2553976;56;1425;-86
2021/06/15 01:52:35;0.00;0.00;0.62;0.00;0.00;0.62;;;;;20.40;1.00;;;;;;2558460;56;1051;-87
2021/06/15 01:55:04;0.00;0.00;0.62;0.00;0.00;0.62;;;;;20.40;1.00;;;;;;2558429;56;1122;-86
2021/06/15 01:57:33;185723.00;0.62;321.34;17852.00;0.06;31.55;;;;;20.50;1.00;;;;;;2560598;56;1122;-86
2021/06/15 02:00:08;0.00;0.00;0.62;0.00;0.00;0.62;;;;;20.60;1.00;;;;;;2564023;56;1443;-86
2021/06/15 02:02:38;0.00;0.00;0.62;0.00;0.00;0.62;;;;;20.70;1.00;;;;;;2569423;55;1153;-86
2021/06/15 02:05:08;95980.00;0.32;166.63;29270.00;0.10;51.32;;;;;20.60;1.00;;;;;;2583970;55;1082;-86
2021/06/15 02:07:41;30212.00;0.10;52.95;0.00;0.00;0.62;;;;;20.70;1.00;;;;;;2583758;55;1943;-87
2021/06/15 02:10:11;50834.00;0.17;88.63;0.00;0.00;0.62;;;;;20.80;1.00;;;;;;2581375;55;1129;-86
2021/06/15 02:12:43;0.00;0.00;0.62;0.00;0.00;0.62;;;;;21.00;1.00;;;;;;2581669;55;1101;-87
2021/06/15 02:15:15;30719.00;0.10;53.83;0.00;0.00;0.62;;;;;21.20;1.00;;;;;;2581789;55;1111;-86
2021/06/15 02:17:46;10548.00;0.04;18.90;0.00;0.00;0.62;;;;;20.90;1.00;;;;;;2581512;55;1119;-86
2021/06/15 02:20:15;60477.00;0.20;105.30;0.00;0.00;0.62;;;;;20.70;1.00;;;;;;2583557;55;1558;-86
2021/06/15 02:22:47;0.00;0.00;0.62;0.00;0.00;0.62;;;;;20.70;1.00;;;;;;2581631;55;1129;-86
2021/06/15 02:25:19;14324.00;0.05;25.44;0.00;0.00;0.62;;;;;20.50;1.00;;;;;;2583931;55;934;-85
2021/06/15 02:27:47;36951.00;0.12;64.61;0.00;0.00;0.62;;;;;20.70;1.00;;;;;;2575762;55;1959;-87
2021/06/15 02:30:16;142719.00;0.48;247.26;0.00;0.00;0.62;;;;;20.90;1.00;;;;;;2580345;55;1123;-86
2021/06/15 02:32:46;19330.00;0.06;34.11;0.00;0.00;0.62;;;;;21.00;1.00;;;;;;2581422;55;1140;-87
2021/06/15 02:35:14;231339.00;0.77;399.85;0.00;0.00;0.62;;;;;20.90;1.00;;;;;;2581291;55;1129;-87
2021/06/15 02:37:47;0.00;0.00;0.62;0.00;0.00;0.62;;;;;20.70;1.00;;;;;;2580957;55;1093;-87
2021/06/15 02:40:15;46420.00;0.15;80.99;0.00;0.00;0.62;;;;;20.60;1.00;;;;;;2581236;55;1049;-87
2021/06/15 02:42:45;75715.00;0.25;131.63;0.00;0.00;0.62;;;;;20.40;1.00;;;;;;2583286;55;1161;-86
2021/06/15 02:45:18;0.00;0.00;0.62;0.00;0.00;0.62;;;;;20.20;1.00;;;;;;2583709;55;1179;-86
2021/06/15 02:47:47;0.00;0.00;0.62;0.00;0.00;0.62;;;;;19.90;1.00;;;;;;2577592;55;1902;-85
2021/06/15 02:50:17;190604.00;0.64;329.75;37038.00;0.12;64.76;;;;;19.80;1.00;;;;;;2582425;55;1141;-86
2021/06/15 02:52:49;82168.00;0.27;142.78;0.00;0.00;0.62;;;;;19.70;1.00;;;;;;2574341;55;1101;-85
2021/06/15 02:55:21;58617.00;0.20;102.09;0.00;0.00;0.62;;;;;19.70;1.00;;;;;;2576947;55;1125;-86
2021/06/15 02:57:48;0.00;0.00;0.62;0.00;0.00;0.62;;;;;19.80;1.00;;;;;;2578798;55;1432;-86
2021/06/15 03:00:18;0.00;0.00;0.62;0.00;0.00;0.62;;;;;20.30;1.00;;;;;;2583850;55;1070;-85
2021/06/15 03:02:45;0.00;0.00;0.62;0.00;0.00;0.62;;;;;20.10;1.00;;;;;;2581555;55;1148;-86
2021/06/15 03:05:16;0.00;0.00;0.62;0.00;0.00;0.62;;;;;20.30;1.00;;;;;;2576896;55;1211;-86
2021/06/15 03:07:44;49834.00;0.17;86.90;0.00;0.00;0.62;;;;;20.50;1.00;;;;;;2583564;55;1902;-87
2021/06/15 03:10:11;96067.00;0.32;166.78;0.00;0.00;0.62;;;;;20.70;1.00;;;;;;2583837;55;1666;-86
2021/06/15 03:12:47;110243.00;0.37;191.25;43585.00;0.15;76.09;;;;;20.40;1.00;;;;;;2583358;55;1614;-87
2021/06/15 03:15:19;94908.00;0.32;164.78;0.00;0.00;0.62;;;;;20.20;1.00;;;;;;2583582;55;1592;-86
2021/06/15 03:17:53;0.00;0.00;0.62;0.00;0.00;0.62;;;;;20.00;1.00;;;;;;2581418;55;1441;-85
2021/06/15 03:20:25;329264.00;1.10;568.22;0.00;0.00;0.62;;;;;19.80;1.00;;;;;;2583484;55;1491;-85
2021/06/15 03:23:05;0.00;0.00;0.62;0.00;0.00;0.62;;;;;19.20;1.00;;;;;;2583577;55;1113;-86
2021/06/15 03:25:34;0.00;0.00;0.62;0.00;0.00;0.62;;;;;19.30;1.00;;;;;;2570236;55;1220;-86
2021/06/15 03:28:06;54038.00;0.18;94.17;0.00;0.00;0.62;;;;;19.20;1.00;;;;;;2583563;55;1949;-86
2021/06/15 03:30:38;0.00;0.00;0.62;0.00;0.00;0.62;;;;;19.40;1.00;;;;;;2577957;55;1046;-85
2021/06/15 03:33:09;38904.00;0.13;67.99;0.00;0.00;0.62;;;;;19.40;1.00;;;;;;2583737;55;1116;-85
2021/06/15 03:35:40;0.00;0.00;0.62;0.00;0.00;0.62;;;;;19.40;1.00;;;;;;2577464;55;1045;-85
2021/06/15 03:38:09;0.00;0.00;0.62;0.00;0.00;0.62;;;;;19.30;1.00;;;;;;2573525;55;1510;-86
2021/06/15 03:40:41;61832.00;0.21;107.64;0.00;0.00;0.62;;;;;19.30;1.00;;;;;;2582217;55;1121;-86
2021/06/15 03:43:12;53739.00;0.18;93.65;0.00;0.00;0.62;;;;;19.20;1.00;;;;;;2582267;55;1116;-86
2021/06/15 03:45:48;67914.00;0.23;118.16;0.00;0.00;0.62;;;;;19.40;1.00;;;;;;2583056;55;1003;-86
2021/06/15 03:48:17;0.00;0.00;0.62;0.00;0.00;0.62;;;;;19.40;1.00;;;;;;2580099;55;1948;-86
2021/06/15 03:50:45;0.00;0.00;0.62;0.00;0.00;0.62;;;;;19.70;1.00;;;;;;2581929;55;1128;-85
2021/06/15 03:53:13;0.00;0.00;0.62;0.00;0.00;0.62;;;;;19.90;1.00;;;;;;2573929;55;1208;-86
2021/06/15 03:55:41;0.00;0.00;0.62;0.00;0.00;0.62;;;;;20.10;1.00;;;;;;2582631;55;1138;-87
2021/06/15 03:58:11;0.00;0.00;0.62;0.00;0.00;0.62;;;;;19.90;1.00;;;;;;2582387;55;1358;-86
2021/06/15 04:00:45;10903.00;0.04;19.51;0.00;0.00;0.62;;;;;19.70;1.00;;;;;;2580292;55;1137;-86
2021/06/15 04:03:15;0.00;0.00;0.62;0.00;0.00;0.62;;;;;19.70;1.00;;;;;;2582782;55;1113;-85
2021/06/15 04:05:44;210491.00;0.70;363.98;41960.00;0.14;73.28;;;;;19.60;1.00;;;;;;2583602;55;1126;-86
2021/06/15 04:08:14;0.00;0.00;0.62;0.00;0.00;0.62;;;;;19.40;1.00;;;;;;2581238;55;1904;-84
2021/06/15 04:10:44;75548.00;0.25;131.35;0.00;0.00;0.62;;;;;19.00;1.00;;;;;;2581030;55;1101;-85
2021/06/15 04:13:14;364253.00;1.21;628.36;75071.00;0.25;130.52;;;;;19.00;1.00;;;;;;2581248;55;1057;-86
2021/06/15 04:15:43;28400.00;0.09;49.81;0.00;0.00;0.62;;;;;18.80;1.00;;;;;;2583412;55;1533;-85
2021/06/15 04:18:13;321747.00;1.07;555.30;110205.00;0.37;191.18;;;;;18.50;1.00;;;;;;2581023;55;1328;-85
2021/06/15 04:20:41;317031.00;1.06;547.19;35572.00;0.12;62.23;;;;;18.50;1.00;;;;;;2581306;55;1109;-87
2021/06/15 04:23:10;88511.00;0.30;153.74;0.00;0.00;0.62;;;;;18.90;1.00;;;;;;2580199;55;1241;-84
2021/06/15 04:25:41;0.00;0.00;0.62;0.00;0.00;0.62;;;;;19.00;1.00;;;;;;2580365;55;1167;-85
2021/06/15 04:28:08;13028.00;0.04;23.19;0.00;0.00;0.62;;;;;19.10;1.00;;;;;;2580228;55;1930;-85
2021/06/15 04:30:35;0.00;0.00;0.62;0.00;0.00;0.62;;;;;18.90;1.00;;;;;;2579882;55;1081;-85
2021/06/15 04:33:09;273294.00;0.91;472.01;44501.00;0.15;77.68;;;;;18.80;1.00;;;;;;2582213;55;1627;-85
2021/06/15 04:35:40;57307.00;0.19;99.82;0.00;0.00;0.62;;;;;18.60;1.00;;;;;;2580900;55;1202;-85
2021/06/15 04:38:11;35653.00;0.12;62.37;0.00;0.00;0.62;;;;;18.40;1.00;;;;;;2583150;55;1541;-84
2021/06/15 04:40:40;0.00;0.00;0.62;0.00;0.00;0.62;;;;;18.10;1.00;;;;;;2580391;55;1112;-86
2021/06/15 04:43:27;87064.00;0.29;151.24;0.00;0.00;0.62;;;;;18.00;1.00;;;;;;2580381;55;1259;-85
2021/06/15 04:45:59;2947.00;0.01;5.73;0.00;0.00;0.62;;;;;18.10;1.00;;;;;;2580402;55;1228;-85
2021/06/15 04:48:32;99587.00;0.33;172.86;0.00;0.00;0.62;;;;;18.20;1.00;;;;;;2580382;55;1949;-85
2021/06/15 04:51:02;35704.00;0.12;62.45;0.00;0.00;0.62;;;;;18.50;1.00;;;;;;2580701;55;1097;-85
2021/06/15 04:53:32;61126.00;0.20;106.42;0.00;0.00;0.62;;;;;19.00;1.00;;;;;;2582158;55;1183;-84
2021/06/15 04:56:02;0.00;0.00;0.62;0.00;0.00;0.62;;;;;19.40;1.00;;;;;;2580484;55;1070;-84
2021/06/15 04:58:32;14108.00;0.05;25.07;0.00;0.00;0.62;;;;;19.40;1.00;;;;;;2580373;55;1350;-85
2021/06/15 05:01:01;571809.00;1.91;985.57;198070.00;0.66;342.60;;;;;19.50;1.00;;;;;;2579333;55;1211;-84
2021/06/15 05:03:31;115987.00;0.39;201.16;0.00;0.00;0.62;;;;;19.50;1.00;;;;;;2580092;55;1152;-85
2021/06/15 05:06:03;74453.00;0.25;129.45;0.00;0.00;0.62;;;;;19.60;1.00;;;;;;2580330;55;1121;-86
2021/06/15 05:08:34;0.00;0.00;0.62;0.00;0.00;0.62;;;;;20.10;1.00;;;;;;2581515;55;1902;-85
2021/06/15 05:11:04;0.00;0.00;0.62;0.00;0.00;0.62;;;;;20.30;1.00;;;;;;2580715;55;1097;-86
2021/06/15 05:13:32;13341.00;0.04;23.74;0.00;0.00;0.62;;;;;20.50;1.00;;;;;;2580213;55;1141;-86
2021/06/15 05:16:01;0.00;0.00;0.62;0.00;0.00;0.62;;;;;20.60;1.00;;;;;;2580391;55;1165;-85
2021/06/15 05:18:31;0.00;0.00;0.62;0.00;0.00;0.62;;;;;20.50;1.00;;;;;;2580694;55;1268;-86
2021/06/15 05:20:59;162442.00;0.54;281.25;0.00;0.00;0.62;;;;;20.50;1.00;;;;;;2581590;55;1073;-85
2021/06/15 05:23:34;16644.00;0.06;29.46;0.00;0.00;0.62;;;;;20.60;1.00;;;;;;2581765;55;1022;-86
2021/06/15 05:26:01;44550.00;0.15;77.76;0.00;0.00;0.62;;;;;20.50;1.00;;;;;;2583926;55;1127;-87
2021/06/15 05:28:27;0.00;0.00;0.62;0.00;0.00;0.62;;;;;20.90;1.00;;;;;;2581072;55;1898;-86
2021/06/15 05:30:54;30054.00;0.10;52.68;0.00;0.00;0.62;;;;;21.10;1.00;;;;;;2580784;55;1117;-86
2021/06/15 05:33:21;0.00;0.00;0.62;0.00;0.00;0.62;;;;;21.30;1.00;;;;;;2581721;55;1160;-86
2021/06/15 05:35:50;26673.00;0.09;46.82;0.00;0.00;0.62;;;;;21.40;1.00;;;;;;2583824;55;1030;-85
2021/06/15 05:38:17;6063.00;0.02;11.13;0.00;0.00;0.62;;;;;21.50;1.00;;;;;;2581723;55;1349;-86
2021/06/15 05:40:45;54636.00;0.18;95.20;0.00;0.00;0.62;;;;;22.20;1.00;;;;;;2581320;55;1075;-86
2021/06/15 05:43:12;9348.00;0.03;16.82;0.00;0.00;0.62;;;;;23.90;1.00;;;;;;2582125;55;1669;-86
2021/06/15 05:45:39;165200.00;0.55;286.00;50484.00;0.17;88.02;;;;;25.80;1.00;;;;;;2581035;55;1081;-88
2021/06/15 05:48:06;50218.00;0.17;87.56;0.00;0.00;0.62;;;;;28.20;1.00;;;;;;2581211;55;1955;-88
2021/06/15 05:50:33;50383.00;0.17;87.85;0.00;0.00;0.62;;;;;29.80;1.00;;;;;;2580978;55;1156;-87
2021/06/15 05:53:01;216537.00;0.72;374.38;0.00;0.00;0.62;;;;;31.10;1.00;;;;;;2579648;55;1208;-87
2021/06/15 05:55:28;24591.00;0.08;43.22;0.00;0.00;0.62;;;;;32.40;1.00;;;;;;2580494;55;1129;-86
2021/06/15 05:57:55;82231.00;0.27;142.89;0.00;0.00;0.62;;;;;33.00;1.00;;;;;;2582305;55;1270;-87
2021/06/15 06:00:22;147883.00;0.49;256.16;33423.00;0.11;58.51;;;;;32.50;1.00;;;;;;2579472;55;1089;-86
2021/06/15 06:02:50;2947.00;0.01;5.73;0.00;0.00;0.62;;;;;32.90;1.00;;;;;;2579622;55;1094;-86
2021/06/15 06:08:10;0.00;0.00;0.62;0.00;0.00;0.62;;;;;34.00;1.00;;;;;;2579682;55;1968;-86
2021/06/15 06:10:40;59554.00;0.20;103.71;0.00;0.00;0.62;;;;;34.40;1.00;;;;;;2578594;55;1112;-85
2021/06/15 06:13:11;0.00;0.00;0.62;0.00;0.00;0.62;;;;;33.90;1.00;;;;;;2579798;55;1132;-87
2021/06/15 06:15:39;109356.00;0.36;189.72;0.00;0.00;0.62;;;;;33.10;1.00;;;;;;2580336;55;1073;-86
2021/06/15 06:18:10;177592.00;0.59;307.34;0.00;0.00;0.62;;;;;32.90;1.00;;;;;;2580351;55;1285;-86
2021/06/15 06:20:38;143883.00;0.48;249.26;0.00;0.00;0.62;;;;;33.70;1.00;;;;;;2581418;55;1073;-86
2021/06/15 06:23:07;130062.00;0.43;225.44;24474.00;0.08;43.02;;;;;33.60;1.00;;;;;;2580727;55;1090;-87
2021/06/15 06:25:34;62518.00;0.21;108.83;0.00;0.00;0.62;;;;;33.50;1.00;;;;;;2579493;55;1125;-85
2021/06/15 06:28:03;0.00;0.00;0.62;0.00;0.00;0.62;;;;;34.10;1.00;;;;;;2579988;55;1947;-86
2021/06/15 06:30:30;116736.00;0.39;202.45;0.00;0.00;0.62;;;;;34.10;1.00;;;;;;2578854;55;1077;-85
2021/06/15 06:32:57;80887.00;0.27;140.57;0.00;0.00;0.62;;;;;34.60;1.00;;;;;;2579366;55;1093;-86
2021/06/15 06:35:24;157802.00;0.53;273.25;0.00;0.00;0.62;;;;;35.10;1.00;;;;;;2579495;55;1157;-86
2021/06/15 06:37:51;101205.00;0.34;175.65;0.00;0.00;0.62;;;;;35.90;1.00;;;;;;2579051;55;1268;-87
2021/06/15 06:40:20;8160.00;0.03;14.76;0.00;0.00;0.62;;;;;36.30;1.00;;;;;;2578838;55;1121;-86
2021/06/15 06:42:47;55215.00;0.18;96.20;0.00;0.00;0.62;;;;;36.90;1.00;;;;;;2579057;55;1199;-86
2021/06/15 06:45:15;0.00;0.00;0.62;0.00;0.00;0.62;;;;;37.30;1.00;;;;;;2578112;55;1141;-86
2021/06/15 06:47:42;79788.00;0.27;138.67;0.00;0.00;0.62;;;;;37.00;1.00;;;;;;2581849;55;1904;-87
2021/06/15 06:50:09;64939.00;0.22;113.01;0.00;0.00;0.62;;;;;36.90;1.00;;;;;;2579655;55;1065;-88
2021/06/15 06:52:37;14159.00;0.05;25.15;0.00;0.00;0.62;;;;;37.30;1.00;;;;;;2578862;55;1136;-87
2021/06/15 06:55:05;32009.00;0.11;56.06;0.00;0.00;0.62;;;;;37.50;1.00;;;;;;2577413;55;1086;-87
2021/06/15 06:57:34;12507.00;0.04;22.29;0.00;0.00;0.62;;;;;38.00;1.00;;;;;;2577711;55;1085;-88
2021/06/15 07:00:01;42477.00;0.14;74.17;0.00;0.00;0.62;;;;;38.20;1.00;;;;;;2579893;55;1314;-87
2021/06/15 07:02:28;0.00;0.00;0.62;0.00;0.00;0.62;;;;;38.60;1.00;;;;;;2578464;55;1138;-88
2021/06/15 07:04:55;81000.00;0.27;140.76;0.00;0.00;0.62;;;;;38.60;1.00;;;;;;2579309;55;1188;-87
2021/06/15 07:07:22;0.00;0.00;0.62;0.00;0.00;0.62;;;;;38.20;1.00;;;;;;2577030;55;1105;-86
2021/06/15 07:09:49;62021.00;0.21;107.97;0.00;0.00;0.62;;;;;38.60;1.00;;;;;;2577318;55;1966;-86
2021/06/15 07:12:16;27136.00;0.09;47.63;0.00;0.00;0.62;;;;;37.90;1.00;;;;;;2580120;55;1667;-86
2021/06/15 07:14:44;3789.00;0.01;7.19;0.00;0.00;0.62;;;;;37.80;1.00;;;;;;2578493;55;1113;-87
2021/06/15 07:17:11;69267.00;0.23;120.49;0.00;0.00;0.62;;;;;37.60;1.00;;;;;;2579781;55;1141;-86
2021/06/15 07:19:38;0.00;0.00;0.62;0.00;0.00;0.62;;;;;36.90;1.00;;;;;;2579115;55;1338;-86
2021/06/15 07:22:06;0.00;0.00;0.62;0.00;0.00;0.62;;;;;36.40;1.00;;;;;;2578584;55;1113;-85
2021/06/15 07:24:34;30787.00;0.10;53.95;0.00;0.00;0.62;;;;;37.10;1.00;;;;;;2577020;55;1114;-87
2021/06/15 07:27:01;28712.00;0.10;50.35;0.00;0.00;0.62;;;;;37.40;1.00;;;;;;2580743;55;1137;-84
2021/06/15 07:29:28;0.00;0.00;0.62;0.00;0.00;0.62;;;;;37.30;1.00;;;;;;2578234;55;1983;-85
2021/06/15 07:34:24;44176.00;0.15;77.11;0.00;0.00;0.62;;;;;38.30;1.00;;;;;;2576552;55;596;-83
2021/06/15 07:36:52;134749.00;0.45;233.52;0.00;0.00;0.62;;;;;38.60;1.00;;;;;;2578715;55;950;-84
2021/06/15 07:39:19;276615.00;0.92;477.72;25408.00;0.08;44.63;;;;;38.00;1.00;;;;;;2577872;55;961;-83
2021/06/15 07:46:41;0.00;0.00;0.62;0.00;0.00;0.62;;;;;38.60;1.00;;;;;;2571386;55;641;-86
2021/06/15 07:49:08;254940.00;0.85;440.45;0.00;0.00;0.62;;;;;39.60;1.00;;;;;;2573682;55;1946;-83
2021/06/15 07:51:38;158657.00;0.53;274.73;0.00;0.00;0.62;;;;;38.80;1.00;;;;;;2573619;55;1284;-83
2021/06/15 07:54:06;215846.00;0.72;373.20;0.00;0.00;0.62;;;;;38.90;1.00;;;;;;2568866;55;930;-83
2021/06/15 07:56:33;338528.00;1.13;584.14;85087.00;0.28;147.82;;;;;38.70;1.00;;;;;;2572727;55;945;-84
2021/06/15 07:59:01;117995.00;0.39;204.62;0.00;0.00;0.62;;;;;39.20;1.00;;;;;;2568002;55;945;-82
2021/06/15 08:01:28;136547.00;0.46;236.62;0.00;0.00;0.62;;;;;39.00;1.00;;;;;;2563407;55;979;-84
2021/06/15 08:06:23;256902.00;0.86;443.82;21720.00;0.07;38.25;;;;;38.90;1.00;;;;;;2571439;55;552;-81
2021/06/15 08:08:51;127469.00;0.42;220.96;0.00;0.00;0.62;;;;;39.00;1.00;;;;;;2562516;55;1949;-82
2021/06/15 08:11:18;39434.00;0.13;68.91;0.00;0.00;0.62;;;;;38.40;1.00;;;;;;2564480;55;941;-81
2021/06/15 08:13:46;11788.00;0.04;21.05;0.00;0.00;0.62;;;;;38.30;1.00;;;;;;2567267;55;1348;-81
2021/06/15 08:16:14;24593.00;0.08;43.22;0.00;0.00;0.62;;;;;38.10;1.00;;;;;;2567981;55;983;-82
2021/06/15 08:18:41;255281.00;0.85;441.03;0.00;0.00;0.62;;;;;38.00;1.00;;;;;;2567274;55;955;-84
2021/06/15 08:21:08;409217.00;1.36;705.65;128757.00;0.43;223.19;;;;;37.80;1.00;;;;;;2567893;55;987;-81
2021/06/15 08:28:32;89327.00;0.30;155.15;0.00;0.00;0.62;;;;;39.10;1.00;;;;;;2571467;55;1919;-81
2021/06/15 08:35:56;0.00;0.00;0.62;0.00;0.00;0.62;;;;;38.30;1.00;;;;;;2571398;55;593;-83
2021/06/15 08:40:53;65376.00;0.22;113.77;0.00;0.00;0.62;;;;;38.50;1.00;;;;;;2571402;55;579;-83
2021/06/15 08:43:21;92400.00;0.31;160.45;0.00;0.00;0.62;;;;;38.60;1.00;;;;;;2567888;55;1396;-83
2021/06/15 08:45:50;45521.00;0.15;79.44;0.00;0.00;0.62;;;;;38.30;1.00;;;;;;2557815;56;1010;-83
2021/06/15 08:48:18;86026.00;0.29;149.45;0.00;0.00;0.62;;;;;38.50;1.00;;;;;;2557866;56;1969;-82
2021/06/15 08:50:46;0.00;0.00;0.62;0.00;0.00;0.62;;;;;38.10;1.00;;;;;;2549068;56;980;-80
2021/06/15 08:53:14;0.00;0.00;0.62;0.00;0.00;0.62;;;;;37.90;1.00;;;;;;2547553;56;1318;-81
2021/06/15 08:55:49;52725.00;0.18;91.90;0.00;0.00;0.62;;;;;38.10;1.00;;;;;;2547824;56;1150;-85
2021/06/15 08:58:25;0.00;0.00;0.62;0.00;0.00;0.62;;;;;37.10;1.00;;;;;;2545576;56;1119;-82
2021/06/15 09:03:21;38182.00;0.13;66.74;0.00;0.00;0.62;;;;;36.50;1.00;;;;;;2571536;55;1327;-82
2021/06/15 09:05:48;18981.00;0.06;33.51;0.00;0.00;0.62;;;;;36.20;1.00;;;;;;2560776;55;965;-82
2021/06/15 09:08:15;126630.00;0.42;219.52;0.00;0.00;0.62;;;;;35.30;1.00;;;;;;2562861;55;918;-82
2021/06/15 09:15:38;26909.00;0.09;47.23;0.00;0.00;0.62;;;;;36.10;1.00;;;;;;2576649;55;592;-84
2021/06/15 09:18:05;232060.00;0.77;401.09;52193.00;0.17;90.98;;;;;36.30;1.00;;;;;;2578820;55;1083;-81
2021/06/15 09:20:33;164465.00;0.55;284.73;63632.00;0.21;110.76;;;;;35.60;1.00;;;;;;2562130;55;930;-82
2021/06/15 09:25:29;9099.00;0.03;16.39;0.00;0.00;0.62;;;;;34.40;1.00;;;;;;2571542;55;569;-82
2021/06/15 09:27:58;78717.00;0.26;136.82;0.00;0.00;0.62;;;;;34.30;1.00;;;;;;2573623;55;958;-83
2021/06/15 09:30:27;0.00;0.00;0.62;0.00;0.00;0.62;;;;;33.60;1.00;;;;;;2562968;55;1956;-82
2021/06/15 09:32:55;0.00;0.00;0.62;0.00;0.00;0.62;;;;;33.40;1.00;;;;;;2562343;55;1181;-82
2021/06/15 09:40:22;16724.00;0.06;29.60;0.00;0.00;0.62;;;;;32.60;1.00;;;;;;2571623;55;522;-84
2021/06/15 09:42:51;121902.00;0.41;211.36;0.00;0.00;0.62;;;;;32.70;1.00;;;;;;2573585;55;1399;-84
2021/06/15 09:45:19;0.00;0.00;0.62;0.00;0.00;0.62;;;;;33.00;1.00;;;;;;2562725;55;949;-83
2021/06/15 09:50:14;5801.00;0.02;10.67;0.00;0.00;0.62;;;;;32.70;1.00;;;;;;2571567;55;1913;-83
2021/06/15 09:55:10;17500.00;0.06;30.94;0.00;0.00;0.62;;;;;33.00;1.00;;;;;;2571616;55;541;-82
2021/06/15 09:57:40;132692.00;0.44;229.97;0.00;0.00;0.62;;;;;32.10;1.00;;;;;;2573652;55;1009;-84
2021/06/15 10:00:13;0.00;0.00;0.62;0.00;0.00;0.62;;;;;32.10;1.00;;;;;;2568776;55;936;-85
2021/06/15 10:05:30;4834.00;0.02;9.00;0.00;0.00;0.62;;;;;31.30;1.00;;;;;;2571655;55;539;-83
2021/06/15 10:17:52;0.00;0.00;0.62;0.00;0.00;0.62;;;;;31.50;1.00;;;;;;2571649;55;519;-82
2021/06/15 10:20:21;53487.00;0.18;93.22;0.00;0.00;0.62;;;;;31.70;1.00;;;;;;2573496;55;990;-83
2021/06/15 10:22:49;51922.00;0.17;90.51;0.00;0.00;0.62;;;;;31.30;1.00;;;;;;2562849;55;1339;-84
2021/06/15 10:27:45;429306.00;1.43;740.19;23493.00;0.08;41.32;;;;;32.30;1.00;;;;;;2571459;55;567;-82
2021/06/15 10:35:13;0.00;0.00;0.62;0.00;0.00;0.62;;;;;32.20;1.00;;;;;;2571711;55;549;-82
2021/06/15 10:37:41;166114.00;0.55;287.57;0.00;0.00;0.62;;;;;32.00;1.00;;;;;;2573856;55;913;-83
2021/06/15 10:45:33;251694.00;0.84;434.86;27247.00;0.09;47.82;;;;;31.40;1.00;;;;;;2570024;55;873;-82
2021/06/15 10:48:31;193591.00;0.65;334.89;58174.00;0.19;101.32;;;;;31.20;1.00;;;;;;2558003;55;964;-83
2021/06/15 10:51:02;214373.00;0.71;370.66;0.00;0.00;0.62;;;;;31.30;1.00;;;;;;2532586;56;1981;-82
2021/06/15 10:53:38;409156.00;1.36;705.55;116649.00;0.39;202.30;;;;;31.60;1.00;;;;;;2532633;56;1454;-80
2021/06/15 10:56:07;177123.00;0.59;306.53;0.00;0.00;0.62;;;;;32.10;1.00;;;;;;2532802;56;995;-83
2021/06/15 10:58:56;63524.00;0.21;110.57;0.00;0.00;0.62;;;;;31.80;1.00;;;;;;2532913;56;1023;-83
2021/06/15 11:01:25;135539.00;0.45;234.88;0.00;0.00;0.62;;;;;31.80;1.00;;;;;;2509027;56;1015;-83
2021/06/15 11:03:53;56238.00;0.19;97.97;0.00;0.00;0.62;;;;;31.30;1.00;;;;;;2517650;56;1324;-83
2021/06/15 11:09:17;85862.00;0.29;149.16;0.00;0.00;0.62;;;;;31.30;1.00;;;;;;2574741;55;1917;-83
2021/06/15 11:14:16;25302.00;0.08;44.45;0.00;0.00;0.62;;;;;30.60;1.00;;;;;;2577296;56;397;-84
2021/06/15 11:16:45;334404.00;1.11;577.06;61411.00;0.20;106.92;;;;;30.30;1.00;;;;;;2578963;55;946;-83
2021/06/15 11:24:23;0.00;0.00;0.62;0.00;0.00;0.62;;;;;31.50;1.00;;;;;;2571345;55;535;-82
2021/06/15 11:29:33;14505.00;0.05;25.75;0.00;0.00;0.62;;;;;31.80;1.00;;;;;;2548655;40;3569;31
2021/06/15 11:32:18;39325.00;0.13;68.72;0.00;0.00;0.62;;;;;31.80;1.00;;;;;;2553638;56;1371;-85
2021/06/15 11:37:20;56049.00;0.19;97.65;0.00;0.00;0.62;;;;;31.10;1.00;;;;;;2571513;55;580;-80
2021/06/15 11:39:49;24796.00;0.08;43.57;0.00;0.00;0.62;;;;;31.30;1.00;;;;;;2573457;55;905;-81
2021/06/15 11:42:25;0.00;0.00;0.62;0.00;0.00;0.62;;;;;31.30;1.00;;;;;;2573686;55;1338;-81
2021/06/15 11:45:02;0.00;0.00;0.62;0.00;0.00;0.62;;;;;31.30;1.00;;;;;;2573741;55;907;-84
2021/06/15 11:47:35;25851.00;0.09;45.40;0.00;0.00;0.62;;;;;31.60;1.00;;;;;;2573820;55;1062;-82
2021/06/15 11:50:12;0.00;0.00;0.62;0.00;0.00;0.62;;;;;32.20;1.00;;;;;;2569159;55;1944;-84
2021/06/15 11:57:36;147692.00;0.49;255.83;0.00;0.00;0.62;;;;;32.80;1.00;;;;;;2571717;55;596;-81